Time;durP1;ratioP1;P1;durP2;ratioP2;P2;SDS_P1;SDS_P2;PMS_P1;PMS_P2;Temp;Humidity;BMP_temperature;BMP_pressure;BME280_temperature;BME280_humidity;BME280_pressure;Samples;Min_cycle;Max_cycle;Signal;HPM_P1;HPM_P2
2022/07/15 00:00:59;;;;;;;3.43;2.10;;;;;;;15.23;47.74;100741.64;1824616;77;20911;-76
2022/07/15 00:03:25;;;;;;;5.63;2.17;;;;;;;15.30;47.85;100747.05;1838031;77;21435;-76
2022/07/15 00:05:51;;;;;;;4.70;2.10;;;;;;;15.39;47.98;100735.47;1845830;77;20930;-76
2022/07/15 00:08:17;;;;;;;4.67;2.50;;;;;;;15.47;48.08;100734.76;1845886;77;20848;-77
2022/07/15 00:10:43;;;;;;;2.20;2.00;;;;;;;15.56;48.13;100739.66;1816947;77;20890;-77
2022/07/15 00:13:09;;;;;;;3.60;2.33;;;;;;;15.62;48.21;100736.84;1790675;77;20858;-77
2022/07/15 00:15:35;;;;;;;6.70;2.42;;;;;;;15.66;48.32;100734.98;1845804;77;20932;-77
2022/07/15 00:18:03;;;;;;;2.53;2.23;;;;;;;15.71;48.44;100739.13;1845069;77;20842;-77
2022/07/15 00:20:33;;;;;;;5.58;2.47;;;;;;;15.80;48.61;100739.26;1843704;77;20879;-77
2022/07/15 00:23:05;;;;;;;5.70;1.90;;;;;;;15.86;48.63;100743.80;1845619;77;20848;-77
2022/07/15 00:25:31;;;;;;;3.70;2.77;;;;;;;15.90;48.67;100741.94;1838129;77;20925;-77
2022/07/15 00:28:02;;;;;;;3.33;2.20;;;;;;;15.94;48.76;100751.35;1830503;77;21514;-77
2022/07/15 00:30:33;;;;;;;7.45;2.15;;;;;;;15.98;48.86;100749.03;1842301;77;20884;-77
2022/07/15 00:33:04;;;;;;;2.92;2.00;;;;;;;16.01;48.92;100746.77;1834804;77;20852;-77
2022/07/15 00:35:30;;;;;;;3.60;1.75;;;;;;;16.05;49.00;100746.61;1844369;77;21416;-77
2022/07/15 00:37:56;;;;;;;4.78;1.72;;;;;;;16.12;49.07;100747.20;1845595;77;21416;-77
2022/07/15 00:40:23;;;;;;;4.00;1.73;;;;;;;16.17;49.13;100746.58;1845491;77;21439;-77
2022/07/15 00:42:49;;;;;;;2.60;1.37;;;;;;;16.22;49.20;100749.88;1815212;78;20831;-78
2022/07/15 00:45:22;;;;;;;2.00;1.55;;;;;;;16.26;49.24;100746.23;1821536;78;20895;-78
2022/07/15 00:47:51;;;;;;;2.42;1.42;;;;;;;16.27;49.30;100747.94;1831856;78;21445;-78
2022/07/15 00:50:20;;;;;;;3.45;1.70;;;;;;;16.29;49.35;100743.97;1800752;78;21357;-77
2022/07/15 00:52:51;;;;;;;3.58;1.70;;;;;;;16.26;49.43;100749.30;1798801;78;21484;-77
2022/07/15 00:55:19;;;;;;;1.70;1.60;;;;;;;16.26;49.49;100754.52;1819121;78;21407;-77
2022/07/15 00:57:46;;;;;;;1.87;1.35;;;;;;;16.23;49.58;100754.18;1794371;78;20885;-77
2022/07/15 01:00:13;;;;;;;;;;;;;;;16.20;49.73;100755.59;1827047;78;20924;-77
2022/07/15 01:02:43;;;;;;;3.87;1.40;;;;;;;16.18;50.03;100753.05;1823169;78;20389;-77
2022/07/15 01:05:11;;;;;;;4.47;2.20;;;;;;;16.18;49.73;100750.89;1825633;78;21452;-77
2022/07/15 01:07:38;;;;;;;1.40;1.02;;;;;;;16.18;49.82;100757.41;1823715;78;20915;-77
2022/07/15 01:10:06;;;;;;;2.35;1.47;;;;;;;16.16;49.87;100752.25;1820503;78;21437;-77
2022/07/15 01:12:34;;;;;;;2.33;1.00;;;;;;;16.14;49.96;100754.52;1821477;78;21468;-77
2022/07/15 01:15:00;;;;;;;3.52;1.42;;;;;;;16.10;50.02;100755.11;1820177;78;20973;-77
2022/07/15 01:17:26;;;;;;;4.40;1.43;;;;;;;16.05;50.22;100751.82;1823640;78;20839;-77
2022/07/15 01:19:52;;;;;;;1.13;1.00;;;;;;;16.01;50.21;100749.37;1837253;77;21363;-77
2022/07/15 01:22:18;;;;;;;3.12;0.85;;;;;;;16.00;50.25;100751.14;1837175;77;21402;-77
2022/07/15 01:24:44;;;;;;;2.08;1.37;;;;;;;16.00;50.28;100762.87;1836713;77;21441;-77
2022/07/15 01:27:10;;;;;;;2.30;1.00;;;;;;;16.01;50.35;100762.42;1837192;77;21648;-77
2022/07/15 01:29:36;;;;;;;1.22;0.62;;;;;;;15.99;50.33;100765.53;1837322;77;21404;-77
2022/07/15 01:32:03;;;;;;;4.13;1.00;;;;;;;15.95;50.46;100760.88;1836790;77;21354;-77
2022/07/15 01:34:29;;;;;;;1.90;0.90;;;;;;;15.89;50.48;100763.25;1836642;77;25608;-76
2022/07/15 01:36:55;;;;;;;2.07;0.90;;;;;;;15.89;50.61;100763.25;1836061;77;21715;-76
2022/07/15 01:39:21;;;;;;;4.23;0.90;;;;;;;15.85;50.63;100765.57;1830495;78;21642;-76
2022/07/15 01:41:47;;;;;;;4.87;1.00;;;;;;;15.83;50.68;100767.84;1836815;77;21394;-76
2022/07/15 01:44:16;;;;;;;1.57;0.80;;;;;;;15.79;50.70;100771.00;1808124;78;21408;-76
2022/07/15 01:46:43;;;;;;;2.87;0.70;;;;;;;15.76;50.81;100765.89;1836597;77;20865;-76
2022/07/15 01:49:29;;;;;;;1.77;0.50;;;;;;;15.68;50.83;100765.76;1837000;77;20872;-77
2022/07/15 01:51:56;;;;;;;2.30;0.95;;;;;;;15.63;50.93;100769.83;1836248;77;20959;-77
2022/07/15 01:54:24;;;;;;;2.62;0.90;;;;;;;15.54;51.03;100774.90;1835928;78;21884;-77
2022/07/15 01:56:52;;;;;;;1.72;0.90;;;;;;;15.51;51.10;100775.00;1836527;77;21329;-77
2022/07/15 01:59:18;;;;;;;;;;;;;;;15.50;51.15;100773.30;1839636;77;20826;-77
2022/07/15 02:01:45;;;;;;;2.65;0.62;;;;;;;15.48;51.53;100774.25;1835107;78;20331;-77
2022/07/15 02:04:12;;;;;;;1.52;0.60;;;;;;;15.46;51.35;100766.94;1836998;78;21899;-77
2022/07/15 02:06:40;;;;;;;4.00;0.60;;;;;;;15.37;51.36;100772.45;1836558;77;21349;-77
2022/07/15 02:09:06;;;;;;;;;;;;;;;15.32;51.48;100773.05;1839774;77;20917;-77
2022/07/15 02:11:32;;;;;;;3.70;0.80;;;;;;;15.27;51.95;100778.41;1834692;77;20202;-77
2022/07/15 02:13:59;;;;;;;2.87;0.95;;;;;;;15.22;51.57;100781.62;1842114;77;20951;-78
2022/07/15 02:16:25;;;;;;;3.40;0.75;;;;;;;15.14;51.66;100779.70;1837895;77;22024;-77
2022/07/15 02:18:52;;;;;;;1.07;0.57;;;;;;;15.13;51.67;100777.55;1815728;77;29495;-77
2022/07/15 02:21:19;;;;;;;1.60;0.60;;;;;;;15.13;51.78;100779.31;1834777;77;21070;-77
2022/07/15 02:23:45;;;;;;;4.67;1.07;;;;;;;15.13;51.87;100776.70;1841200;77;21640;-77
2022/07/15 02:26:19;;;;;;;3.85;0.47;;;;;;;15.09;51.89;100783.77;1832063;77;21045;-77
2022/07/15 02:28:45;;;;;;;2.02;0.70;;;;;;;15.05;51.95;100780.03;1828508;78;21024;-77
2022/07/15 02:31:11;;;;;;;4.80;1.13;;;;;;;15.00;52.10;100782.78;1830197;77;20960;-77
2022/07/15 02:33:38;;;;;;;1.47;0.40;;;;;;;14.94;52.19;100785.58;1843085;77;21042;-76
2022/07/15 02:36:06;;;;;;;2.85;0.85;;;;;;;14.89;52.25;100780.96;1851913;77;20945;-76
2022/07/15 02:38:32;;;;;;;4.20;0.70;;;;;;;14.86;52.36;100781.05;1850891;77;22153;-76
2022/07/15 02:40:58;;;;;;;4.00;0.70;;;;;;;14.81;52.44;100786.41;1848305;77;20874;-76
2022/07/15 02:43:24;;;;;;;4.13;0.70;;;;;;;14.79;52.45;100788.20;1820168;77;20849;-77
2022/07/15 02:45:49;;;;;;;3.63;0.73;;;;;;;14.75;52.54;100790.49;1816345;77;21005;-77
2022/07/15 02:48:16;;;;;;;4.40;0.70;;;;;;;14.72;52.62;100794.48;1809948;78;21452;-77
2022/07/15 02:50:42;;;;;;;3.95;0.90;;;;;;;14.70;52.75;100791.53;1844750;77;21013;-77
2022/07/15 02:53:15;;;;;;;3.50;0.80;;;;;;;14.70;52.77;100792.83;1850162;77;21051;-77
2022/07/15 02:55:41;;;;;;;2.60;0.88;;;;;;;14.67;52.85;100789.02;1822365;77;21055;-77
2022/07/15 02:58:07;;;;;;;3.90;1.00;;;;;;;14.66;52.93;100795.12;1851036;77;20996;-77
2022/07/15 03:00:34;;;;;;;5.87;0.70;;;;;;;14.64;52.97;100791.71;1844452;77;21098;-77
2022/07/15 03:03:00;;;;;;;2.42;0.70;;;;;;;14.63;53.06;100800.42;1829118;77;21091;-77
2022/07/15 03:05:26;;;;;;;11.30;1.57;;;;;;;14.58;53.14;100806.61;1827837;77;20968;-77
2022/07/15 03:07:52;;;;;;;4.10;0.80;;;;;;;14.54;53.21;100801.57;1836068;77;21052;-77
2022/07/15 03:10:18;;;;;;;1.90;0.67;;;;;;;14.54;53.30;100807.63;1841152;77;21044;-77
2022/07/15 03:12:44;;;;;;;2.87;0.93;;;;;;;14.52;53.39;100804.22;1842241;77;21287;-76
2022/07/15 03:15:11;;;;;;;3.20;1.30;;;;;;;14.51;53.45;100808.16;1814031;78;20946;-76
2022/07/15 03:17:41;;;;;;;3.65;0.93;;;;;;;14.50;53.51;100815.56;1847252;77;21475;-76
2022/07/15 03:20:11;;;;;;;2.12;0.85;;;;;;;14.48;53.54;100813.01;1847491;77;21008;-76
2022/07/15 03:22:37;;;;;;;5.80;0.80;;;;;;;14.50;53.63;100816.87;1843858;77;21073;-77
2022/07/15 03:25:04;;;;;;;3.87;0.77;;;;;;;14.52;53.71;100821.58;1845578;77;21003;-77
2022/07/15 03:27:31;;;;;;;1.35;0.60;;;;;;;14.53;53.75;100816.33;1840096;77;21019;-77
2022/07/15 03:29:58;;;;;;;2.37;0.60;;;;;;;14.52;53.79;100825.03;1842574;77;21069;-77
2022/07/15 03:32:24;;;;;;;3.33;0.90;;;;;;;14.51;53.85;100828.98;1847991;77;20883;-77
2022/07/15 03:34:50;;;;;;;7.63;2.63;;;;;;;14.47;53.92;100824.76;1845486;77;20930;-76
2022/07/15 03:37:16;;;;;;;3.07;1.10;;;;;;;14.48;53.98;100831.67;1849551;77;20849;-76
2022/07/15 03:39:42;;;;;;;2.67;0.90;;;;;;;14.51;54.05;100832.88;1814878;78;20923;-76
2022/07/15 03:42:08;;;;;;;5.40;0.70;;;;;;;14.52;54.04;100830.69;1835846;77;21392;-76
2022/07/15 03:44:34;;;;;;;3.03;0.93;;;;;;;14.49;54.14;100831.62;1848370;77;20899;-76
2022/07/15 03:47:01;;;;;;;3.83;1.12;;;;;;;14.50;54.15;100834.63;1848752;77;20887;-76
2022/07/15 03:49:28;;;;;;;7.90;1.53;;;;;;;14.50;54.21;100837.69;1851018;77;20846;-76
2022/07/15 03:51:54;;;;;;;2.20;0.82;;;;;;;14.49;54.28;100838.58;1851069;77;20865;-76
2022/07/15 03:54:20;;;;;;;4.03;0.82;;;;;;;14.47;54.38;100846.43;1840673;77;20864;-77
2022/07/15 03:56:47;;;;;;;2.57;0.77;;;;;;;14.44;54.42;100835.25;1842495;77;20905;-77
2022/07/15 03:59:14;;;;;;;5.70;0.80;;;;;;;14.44;54.51;100843.06;1830753;77;20913;-77
2022/07/15 04:01:48;;;;;;;2.92;0.70;;;;;;;14.47;54.58;100836.47;1836533;77;20905;-77
2022/07/15 04:04:16;;;;;;;2.95;0.80;;;;;;;14.49;54.62;100837.28;1776532;80;20910;-77
2022/07/15 04:06:41;;;;;;;;;;;;;;;14.50;54.66;100845.48;1818903;78;20896;-77
2022/07/15 04:09:09;;;;;;;1.10;0.63;;;;;;;14.50;55.12;100833.33;1819579;78;20184;-77
2022/07/15 04:11:35;;;;;;;2.15;0.78;;;;;;;14.50;54.73;100838.98;1849473;77;21154;-77
2022/07/15 04:14:01;;;;;;;5.23;0.93;;;;;;;14.54;54.80;100838.00;1838522;77;20917;-76
2022/07/15 04:16:28;;;;;;;4.30;0.95;;;;;;;14.70;54.96;100830.58;1828413;78;21577;-76
2022/07/15 04:18:54;;;;;;;;;;;;;;;14.91;54.96;100835.14;1831464;77;20921;-76
2022/07/15 04:21:23;;;;;;;2.67;0.78;;;;;;;14.98;55.22;100837.97;1836024;77;20092;-76
2022/07/15 04:23:49;;;;;;;3.70;0.80;;;;;;;14.97;54.89;100837.56;1840711;77;20915;-76
2022/07/15 04:26:15;;;;;;;3.45;0.80;;;;;;;14.95;54.96;100838.05;1846109;77;21699;-76
2022/07/15 04:28:41;;;;;;;3.27;0.90;;;;;;;14.96;55.07;100840.21;1845823;77;20901;-76
2022/07/15 04:31:07;;;;;;;3.77;0.83;;;;;;;14.99;55.12;100842.72;1843428;77;20915;-76
2022/07/15 04:33:33;;;;;;;2.10;0.80;;;;;;;15.02;55.16;100836.97;1812279;79;20923;-76
2022/07/15 04:35:59;;;;;;;3.73;0.90;;;;;;;15.02;55.23;100841.33;1815914;77;20832;-76
2022/07/15 04:38:25;;;;;;;4.87;0.82;;;;;;;15.02;55.22;100840.03;1845951;77;20869;-76
2022/07/15 04:40:51;;;;;;;3.80;0.80;;;;;;;15.03;55.25;100843.89;1845628;77;20935;-76
2022/07/15 04:43:18;;;;;;;4.60;0.77;;;;;;;15.05;55.29;100847.30;1845715;77;20852;-77
2022/07/15 04:45:45;;;;;;;1.62;0.82;;;;;;;15.04;55.36;100841.69;1832599;77;20890;-77
2022/07/15 04:50:56;;;;;;;3.00;1.20;;;;;;;15.09;55.49;100844.11;1816133;77;20870;-77
2022/07/15 04:53:23;;;;;;;5.85;0.82;;;;;;;15.09;55.51;100850.63;1832701;78;20912;-77
2022/07/15 04:55:49;;;;;;;4.17;1.03;;;;;;;15.08;55.54;100852.38;1829230;78;20863;-77
2022/07/15 04:58:15;;;;;;;7.78;1.05;;;;;;;15.12;55.58;100852.69;1833931;78;21336;-77
2022/07/15 05:00:43;;;;;;;2.70;0.90;;;;;;;15.15;55.68;100861.71;1840020;77;20923;-77
2022/07/15 05:03:09;;;;;;;3.60;0.70;;;;;;;15.15;55.68;100861.71;1823896;78;20866;-77
2022/07/15 05:05:36;;;;;;;7.60;1.20;;;;;;;15.20;55.70;100857.22;1825600;78;20907;-77
2022/07/15 05:08:08;;;;;;;4.80;1.00;;;;;;;15.27;55.85;100856.57;1825013;78;20913;-77
2022/07/15 05:10:35;;;;;;;6.40;0.93;;;;;;;15.41;55.89;100863.50;1822968;78;28076;-77
2022/07/15 05:13:04;;;;;;;4.13;1.30;;;;;;;15.56;55.96;100859.55;1797271;77;21395;-77
2022/07/15 05:15:30;;;;;;;4.12;0.88;;;;;;;15.72;55.90;100868.58;1771800;78;20940;-77
2022/07/15 05:17:56;;;;;;;3.70;0.82;;;;;;;15.81;55.90;100873.95;1782053;79;20885;-77
2022/07/15 05:20:23;;;;;;;5.23;0.90;;;;;;;15.94;55.92;100866.11;1767095;79;20909;-77
2022/07/15 05:22:55;;;;;;;4.62;0.90;;;;;;;16.08;55.96;100876.08;1788465;79;20945;-77
2022/07/15 05:25:21;;;;;;;5.92;1.45;;;;;;;16.28;55.96;100871.44;1795904;78;20937;-77
2022/07/15 05:27:47;;;;;;;5.00;0.93;;;;;;;16.54;55.98;100878.73;1795646;78;20917;-77
2022/07/15 05:30:15;;;;;;;3.25;0.80;;;;;;;16.94;56.03;100870.73;1786355;79;20862;-77
2022/07/15 05:32:42;;;;;;;4.70;0.80;;;;;;;17.29;55.91;100868.48;1799675;79;21760;-76
2022/07/15 05:35:14;;;;;;;7.53;1.45;;;;;;;17.37;55.72;100872.50;1798393;78;20894;-77
2022/07/15 05:37:42;;;;;;;6.42;0.93;;;;;;;17.59;55.88;100873.80;1790374;78;21327;-77
2022/07/15 05:40:10;;;;;;;4.58;1.00;;;;;;;18.20;55.80;100871.20;1801578;78;20897;-77
2022/07/15 05:42:39;;;;;;;2.33;0.72;;;;;;;18.82;55.76;100864.93;1824173;77;20931;-77
2022/07/15 05:45:07;;;;;;;3.15;0.80;;;;;;;19.42;55.48;100870.34;1837786;77;21003;-77
2022/07/15 05:47:34;;;;;;;5.58;0.85;;;;;;;19.89;55.32;100869.77;1835554;76;20906;-77
2022/07/15 05:50:06;;;;;;;4.15;1.10;;;;;;;20.44;55.16;100872.19;1824036;77;20946;-77
2022/07/15 05:52:33;;;;;;;5.35;1.20;;;;;;;20.85;54.83;100879.14;1839262;77;20895;-77
2022/07/15 05:54:59;;;;;;;2.75;0.80;;;;;;;21.27;54.49;100879.91;1769814;79;23504;-77
2022/07/15 05:57:25;;;;;;;6.20;1.00;;;;;;;21.59;54.27;100887.73;1818306;77;20862;-77
2022/07/15 05:59:51;;;;;;;5.42;1.10;;;;;;;21.81;53.93;100876.34;1810564;79;20908;-77
2022/07/15 06:02:18;;;;;;;4.67;0.97;;;;;;;22.12;54.00;100893.82;1760513;79;21055;-78
2022/07/15 06:04:44;;;;;;;;;;;;;;;22.33;53.46;100880.68;1795451;78;20913;-78
2022/07/15 06:07:10;;;;;;;5.65;1.05;;;;;;;22.46;52.82;100888.19;1796740;79;20169;-78
2022/07/15 06:09:37;;;;;;;5.40;1.00;;;;;;;22.77;53.34;100892.89;1796532;78;20878;-78
2022/07/15 06:12:03;;;;;;;1.82;0.80;;;;;;;22.96;52.80;100889.48;1795620;78;20893;-78
2022/07/15 06:14:29;;;;;;;2.45;1.00;;;;;;;23.32;52.59;100896.00;1763937;79;20949;-78
2022/07/15 06:16:55;;;;;;;3.15;0.95;;;;;;;23.45;52.29;100899.51;1780180;78;20866;-76
2022/07/15 06:19:22;;;;;;;3.00;0.90;;;;;;;23.71;52.07;100900.48;1801946;78;20940;-76
2022/07/15 06:21:47;;;;;;;2.10;0.73;;;;;;;23.88;51.82;100902.84;1770629;79;21593;-76
2022/07/15 06:24:13;;;;;;;4.70;1.27;;;;;;;23.97;51.57;100902.67;1761773;78;20875;-78
2022/07/15 06:26:39;;;;;;;4.13;1.20;;;;;;;24.13;51.38;100904.66;1762875;79;20931;-76
2022/07/15 06:29:06;;;;;;;2.03;0.90;;;;;;;24.41;50.92;100907.14;1809304;79;20881;-77
2022/07/15 06:31:31;;;;;;;5.50;0.88;;;;;;;24.42;50.25;100910.63;1807187;78;20892;-79
2022/07/15 06:33:58;;;;;;;8.00;1.70;;;;;;;24.18;50.15;100910.95;1792038;79;20900;-77
2022/07/15 06:36:25;;;;;;;3.35;0.85;;;;;;;23.92;50.05;100916.66;1799364;78;21249;-74
2022/07/15 06:38:52;;;;;;;4.08;1.32;;;;;;;23.73;49.78;100917.91;1646152;79;9999883;-74
2022/07/15 06:41:18;;;;;;;3.83;1.15;;;;;;;23.51;49.59;100916.27;1773131;79;21025;-75
2022/07/15 06:43:45;;;;;;;2.67;1.00;;;;;;;23.25;49.14;100927.69;1761090;79;21023;-75
2022/07/15 06:46:12;;;;;;;6.72;0.80;;;;;;;22.91;48.92;100931.59;1776382;80;22214;-77
2022/07/15 06:48:39;;;;;;;4.15;0.70;;;;;;;22.59;48.75;100939.69;1780807;78;20987;-80
2022/07/15 06:51:08;;;;;;;2.85;1.10;;;;;;;22.35;48.67;100942.51;1792068;78;20918;-79
2022/07/15 06:53:34;;;;;;;5.42;1.00;;;;;;;22.22;48.56;100932.32;1804664;78;20944;-78
2022/07/15 06:56:00;;;;;;;5.90;1.42;;;;;;;22.11;48.26;100942.17;1808895;78;20959;-78
2022/07/15 06:58:26;;;;;;;3.85;0.93;;;;;;;21.80;47.84;100935.20;1813224;79;20900;-78
2022/07/15 07:00:52;;;;;;;4.30;1.07;;;;;;;21.52;48.00;100943.80;1807395;77;20897;-77
2022/07/15 07:03:21;;;;;;;5.40;1.10;;;;;;;21.36;47.83;100949.54;1803911;77;20910;-80
2022/07/15 07:05:48;;;;;;;2.15;0.75;;;;;;;21.18;47.53;100953.17;1777434;80;20866;-79
2022/07/15 07:08:14;;;;;;;6.60;1.35;;;;;;;20.99;47.45;100952.01;1807507;78;20889;-79
2022/07/15 07:10:40;;;;;;;2.53;0.73;;;;;;;20.73;47.35;100954.73;1772803;79;20938;-80
2022/07/15 07:13:06;;;;;;;4.33;0.77;;;;;;;20.57;47.23;100947.27;1812102;79;20932;-78
2022/07/15 07:15:32;;;;;;;2.17;0.75;;;;;;;20.39;47.11;100953.85;1796518;78;21142;-75
2022/07/15 07:17:58;;;;;;;2.83;0.83;;;;;;;20.21;47.09;100949.53;1811650;77;20858;-75
2022/07/15 07:20:27;;;;;;;3.00;0.72;;;;;;;20.14;47.08;100952.08;1781286;78;21044;-75
2022/07/15 07:22:53;;;;;;;5.93;1.53;;;;;;;20.18;47.13;100954.09;1822763;76;21616;-76
2022/07/15 07:25:19;;;;;;;3.60;0.77;;;;;;;20.29;47.07;100954.36;1817777;78;20964;-76
2022/07/15 07:27:45;;;;;;;1.90;0.60;;;;;;;20.37;46.88;100955.67;1803017;78;21257;-75
2022/07/15 07:30:12;;;;;;;;;;;;;;;20.37;46.83;100957.45;1768273;80;21032;-76
2022/07/15 07:32:38;;;;;;;1.77;0.70;;;;;;;20.40;46.80;100959.95;1833618;76;20182;-75
2022/07/15 07:35:05;;;;;;;2.47;0.72;;;;;;;20.45;46.72;100957.95;1824428;76;20996;-75
2022/07/15 07:37:37;;;;;;;2.42;0.80;;;;;;;20.45;46.62;100962.73;1833302;77;21070;-75
2022/07/15 07:40:05;;;;;;;1.98;0.80;;;;;;;20.42;46.60;100961.58;1830275;77;20935;-75
2022/07/15 07:42:31;;;;;;;5.22;1.15;;;;;;;20.41;46.55;100961.66;1824116;76;20894;-76
2022/07/15 07:44:59;;;;;;;6.30;0.60;;;;;;;20.33;46.48;100967.73;1832631;76;20880;-75
2022/07/15 07:47:25;;;;;;;4.25;0.80;;;;;;;20.28;46.38;100961.86;1815732;78;20923;-75
2022/07/15 07:49:52;;;;;;;6.90;1.02;;;;;;;20.22;46.43;100961.73;1804951;78;20931;-75
2022/07/15 07:52:19;;;;;;;2.62;0.93;;;;;;;20.21;46.36;100965.75;1810013;78;20888;-75
2022/07/15 07:54:45;;;;;;;3.17;0.70;;;;;;;20.16;46.35;100972.55;1808526;78;20868;-75
2022/07/15 07:57:11;;;;;;;4.70;1.17;;;;;;;20.18;46.32;100973.32;1808622;77;20849;-75
2022/07/15 07:59:37;;;;;;;3.40;0.80;;;;;;;20.14;46.29;100966.52;1807212;78;20930;-75
2022/07/15 08:02:06;;;;;;;4.30;1.00;;;;;;;20.13;46.22;100974.86;1789908;78;20900;-75
2022/07/15 08:04:32;;;;;;;2.95;0.80;;;;;;;20.11;46.23;100975.41;1803941;78;20908;-75
2022/07/15 08:06:59;;;;;;;2.30;0.70;;;;;;;20.11;46.21;100971.46;1806367;78;20905;-75
2022/07/15 08:09:26;;;;;;;2.02;0.70;;;;;;;20.07;46.11;100972.54;1817682;78;20919;-75
2022/07/15 08:11:52;;;;;;;4.62;0.82;;;;;;;20.04;45.93;100982.34;1806639;78;20929;-75
2022/07/15 08:14:18;;;;;;;4.20;0.60;;;;;;;19.85;45.83;100987.64;1776007;78;21026;-75
2022/07/15 08:16:45;;;;;;;2.83;0.90;;;;;;;19.75;45.94;100993.82;1777042;78;20848;-76
2022/07/15 08:19:16;;;;;;;3.20;0.90;;;;;;;19.77;45.92;100991.94;1790024;78;20923;-75
2022/07/15 08:21:43;;;;;;;1.10;0.42;;;;;;;19.81;45.92;100993.50;1816142;78;20928;-75
2022/07/15 08:24:10;;;;;;;3.50;0.60;;;;;;;19.89;45.82;100994.91;1785663;77;20824;-75
2022/07/15 08:26:37;;;;;;;2.52;0.70;;;;;;;20.00;45.84;100996.08;1820304;77;20889;-75
2022/07/15 08:29:04;;;;;;;3.95;0.95;;;;;;;20.13;45.77;100993.24;1808257;78;20893;-76
2022/07/15 08:31:31;;;;;;;;;;;;;;;20.26;45.73;100994.80;1784402;78;20960;-75
2022/07/15 08:33:57;;;;;;;3.95;0.65;;;;;;;20.26;45.31;100997.42;1799679;78;20163;-75
2022/07/15 08:36:25;;;;;;;1.67;0.70;;;;;;;20.14;45.47;100998.03;1776064;78;20932;-75
2022/07/15 08:38:51;;;;;;;3.07;0.70;;;;;;;20.05;45.50;101001.11;1799221;77;21025;-76
2022/07/15 08:41:18;;;;;;;1.03;0.57;;;;;;;19.95;45.41;100999.85;1814898;77;20981;-75
2022/07/15 08:43:48;;;;;;;2.98;0.98;;;;;;;19.83;45.46;101006.55;1779251;78;21029;-78
2022/07/15 08:46:16;;;;;;;2.20;0.50;;;;;;;19.78;45.47;101001.98;1814671;78;20901;-76
2022/07/15 08:48:47;;;;;;;2.95;0.78;;;;;;;19.74;45.40;101011.80;1810494;78;20893;-76
2022/07/15 08:51:14;;;;;;;4.45;0.95;;;;;;;19.73;45.35;100998.75;1810069;78;20849;-75
2022/07/15 08:53:40;;;;;;;4.33;0.72;;;;;;;20.00;45.34;101003.95;1816154;77;20842;-75
2022/07/15 08:56:07;;;;;;;5.20;0.82;;;;;;;20.60;45.51;101006.23;1807101;78;20936;-75
2022/07/15 08:58:36;;;;;;;2.87;0.70;;;;;;;20.87;45.27;100999.52;1819660;78;20892;-75
2022/07/15 09:01:02;;;;;;;3.22;0.50;;;;;;;21.00;45.24;100999.72;1817202;78;20908;-75
2022/07/15 09:03:28;;;;;;;5.60;0.65;;;;;;;21.01;45.08;101006.21;1818276;78;20920;-75
2022/07/15 09:05:54;;;;;;;3.50;0.40;;;;;;;20.95;44.99;101011.79;1821934;78;22156;-75
2022/07/15 09:08:20;;;;;;;3.47;0.70;;;;;;;20.81;44.83;101012.52;1819377;78;20900;-75
2022/07/15 09:10:56;;;;;;;8.58;0.72;;;;;;;20.69;44.67;101017.58;1819522;78;20899;-75
2022/07/15 09:13:40;;;;;;;2.95;0.75;;;;;;;20.62;44.78;101020.14;1814843;78;20919;-75
2022/07/15 09:16:10;;;;;;;5.15;0.62;;;;;;;20.57;44.58;101010.33;1810052;78;20920;-75
2022/07/15 09:18:41;;;;;;;4.37;0.80;;;;;;;20.42;44.53;101029.87;1806744;79;21713;-75
2022/07/15 09:21:20;;;;;;;2.25;0.62;;;;;;;20.30;44.47;101029.14;1807056;78;21381;-75
2022/07/15 09:23:48;;;;;;;3.12;0.85;;;;;;;20.14;44.43;101027.77;1798520;79;20884;-75
2022/07/15 09:26:29;;;;;;;3.12;0.55;;;;;;;20.02;44.38;101032.30;1813114;79;20841;-76
2022/07/15 09:28:57;;;;;;;2.92;0.80;;;;;;;19.88;44.32;101029.95;1789283;78;20924;-76
2022/07/15 09:34:15;;;;;;;4.33;0.88;;;;;;;19.70;44.43;101039.57;1789759;79;20100;-75
2022/07/15 09:36:50;;;;;;;1.95;0.47;;;;;;;19.70;44.38;101043.50;1806733;78;25090;-75
2022/07/15 09:39:14;;;;;;;2.67;0.72;;;;;;;19.72;44.33;101037.27;1810425;78;21313;-75
2022/07/15 09:41:43;;;;;;;1.53;0.43;;;;;;;19.76;44.35;101036.16;1802249;79;20913;-75
2022/07/15 09:44:22;;;;;;;2.20;0.68;;;;;;;19.75;44.22;101037.13;1832192;77;20844;-75
2022/07/15 09:46:57;;;;;;;1.30;0.70;;;;;;;19.70;44.25;101035.17;1830351;77;20918;-75
2022/07/15 09:49:33;;;;;;;2.75;0.80;;;;;;;19.70;44.25;101032.55;1835582;77;20882;-75
2022/07/15 09:52:09;;;;;;;;;;;;;;;19.71;44.18;101041.27;1774599;80;21338;-75
2022/07/15 09:54:39;;;;;;;2.08;0.50;;;;;;;19.77;44.28;101033.08;1801855;79;20121;-75
2022/07/15 09:57:09;;;;;;;3.08;0.80;;;;;;;19.83;44.23;101039.34;1804293;78;21413;-75
2022/07/15 09:59:36;;;;;;;2.83;0.72;;;;;;;19.91;44.27;101037.21;1813186;79;21330;-75
2022/07/15 10:02:03;;;;;;;3.33;0.85;;;;;;;20.05;44.23;101035.23;1809864;78;20877;-75
2022/07/15 10:04:32;;;;;;;3.62;0.60;;;;;;;20.09;44.19;101035.02;1811873;78;20873;-75
2022/07/15 10:07:05;;;;;;;4.25;1.05;;;;;;;20.18;44.15;101040.74;1810803;78;20941;-75
2022/07/15 10:09:34;;;;;;;2.70;0.50;;;;;;;20.24;44.11;101040.44;1800039;77;20924;-75
2022/07/15 10:12:23;;;;;;;2.08;0.50;;;;;;;20.29;44.10;101040.57;1801472;79;22167;-75
2022/07/15 10:15:30;;;;;;;4.15;0.60;;;;;;;20.28;44.06;101039.33;1793780;78;21186;-76
2022/07/15 10:18:17;;;;;;;2.52;0.60;;;;;;;20.25;44.05;101029.86;1774374;79;21599;-75
2022/07/15 10:21:22;;;;;;;4.33;0.93;;;;;;;20.16;44.03;101035.11;1771839;79;21128;-75
2022/07/15 10:24:32;;;;;;;3.30;0.60;;;;;;;20.12;44.05;101029.61;1792990;78;21040;-76
2022/07/15 10:27:26;;;;;;;4.47;0.68;;;;;;;20.06;44.02;101029.06;1794702;77;20974;-75
2022/07/15 10:29:54;;;;;;;2.67;0.82;;;;;;;20.11;44.13;101031.85;1791577;79;21452;-75
2022/07/15 10:32:21;;;;;;;3.05;0.75;;;;;;;20.21;44.13;101035.34;1803213;78;21551;-76
2022/07/15 10:34:48;;;;;;;1.82;0.65;;;;;;;20.25;44.02;101035.58;1806157;79;21385;-75
2022/07/15 10:37:15;;;;;;;3.77;0.65;;;;;;;20.27;44.02;101035.89;1813188;79;21361;-75
2022/07/15 10:40:03;;;;;;;4.37;0.53;;;;;;;20.29;44.03;101038.41;1812982;79;21409;-75
2022/07/15 10:42:25;;;;;;;3.25;0.70;;;;;;;20.29;43.96;101040.57;1807516;78;20897;-75
2022/07/15 10:45:06;;;;;;;2.55;1.00;;;;;;;20.22;43.95;101038.36;1808738;79;21374;-75
2022/07/15 10:47:34;;;;;;;2.55;0.50;;;;;;;20.25;43.96;101040.37;1812872;78;21361;-75
2022/07/15 10:50:01;;;;;;;2.83;0.47;;;;;;;20.24;43.79;101034.73;1756629;80;20896;-75
2022/07/15 10:52:31;;;;;;;1.85;0.47;;;;;;;20.29;43.84;101041.03;1779676;79;21768;-75
2022/07/15 10:55:04;;;;;;;2.45;0.90;;;;;;;20.35;43.75;101029.77;1786482;79;21472;-75
2022/07/15 10:57:51;;;;;;;3.22;0.60;;;;;;;20.47;43.76;101035.75;1795359;77;21985;-75
2022/07/15 11:00:31;;;;;;;3.70;0.70;;;;;;;20.61;43.62;101032.89;1796886;78;21377;-76
2022/07/15 11:03:18;;;;;;;2.12;0.68;;;;;;;20.65;43.47;101031.80;1804221;79;20924;-75
2022/07/15 11:06:00;;;;;;;4.33;0.60;;;;;;;20.61;43.49;101038.14;1797286;79;20916;-76
2022/07/15 11:08:39;;;;;;;1.67;0.90;;;;;;;20.56;43.47;101034.91;1801825;77;21317;-76
2022/07/15 11:11:19;;;;;;;2.35;0.60;;;;;;;20.56;43.43;101034.91;1801376;78;20912;-75
2022/07/15 11:13:49;;;;;;;2.80;0.65;;;;;;;20.60;43.33;101029.87;1801737;79;20904;-75
2022/07/15 11:16:19;;;;;;;2.27;0.50;;;;;;;20.63;43.25;101038.92;1782810;78;20995;-75
2022/07/15 11:18:57;;;;;;;8.40;1.02;;;;;;;20.68;43.23;101032.97;1793513;78;20893;-75
2022/07/15 11:21:24;;;;;;;1.50;0.80;;;;;;;20.76;43.13;101025.08;1794878;78;21293;-75
2022/07/15 11:23:54;;;;;;;2.80;0.55;;;;;;;20.87;43.09;101034.15;1788587;78;26979;-75
2022/07/15 11:26:20;;;;;;;1.47;0.70;;;;;;;20.98;43.02;101043.64;1779507;78;20929;-76
2022/07/15 11:28:59;;;;;;;7.30;2.37;;;;;;;21.04;42.85;101034.97;1790258;78;20899;-76
2022/07/15 11:31:26;;;;;;;3.60;0.60;;;;;;;20.97;42.81;101053.31;1804782;77;20855;-75
2022/07/15 11:33:56;;;;;;;1.67;1.07;;;;;;;20.82;42.63;101050.16;1785312;78;20838;-75
2022/07/15 11:36:22;;;;;;;2.17;0.93;;;;;;;20.71;42.70;101053.83;1853035;77;20881;-75
2022/07/15 11:38:49;;;;;;;2.42;1.12;;;;;;;20.65;42.55;101049.73;1844624;76;21084;-75